createdAt,value
2018-06-20T00:01:56.271Z,101767.00
2018-06-20T00:05:06.988Z,101761.00
2018-06-20T00:08:17.836Z,101759.00
2018-06-20T00:11:28.476Z,101754.00
2018-06-20T00:14:39.195Z,101752.00
2018-06-20T00:17:50.078Z,101750.00
2018-06-20T00:21:00.487Z,101744.00
2018-06-20T00:24:10.942Z,101738.00
2018-06-20T00:27:21.851Z,101739.00
2018-06-20T00:30:32.748Z,101738.00
2018-06-20T00:33:43.732Z,101737.00
2018-06-20T00:36:54.234Z,101734.00
2018-06-20T00:40:05.105Z,101731.00
2018-06-20T00:43:16.411Z,101733.00
2018-06-20T00:46:27.099Z,101731.00
2018-06-20T00:49:38.007Z,101728.00
2018-06-20T00:52:48.433Z,101731.00
2018-06-20T00:56:16.248Z,101720.00
2018-06-20T00:59:26.850Z,101726.00
2018-06-20T01:02:37.806Z,101726.00
2018-06-20T01:05:48.297Z,101720.00
2018-06-20T01:08:59.929Z,101714.00
2018-06-20T01:12:10.222Z,101712.00
2018-06-20T01:15:20.738Z,101705.00
2018-06-20T01:18:31.426Z,101704.00
2018-06-20T01:21:42.878Z,101710.00
2018-06-20T01:24:53.544Z,101706.00
2018-06-20T01:28:04.184Z,101703.00
2018-06-20T01:31:16.320Z,101703.00
2018-06-20T01:34:26.760Z,101707.00
2018-06-20T01:37:37.404Z,101709.00
2018-06-20T01:40:49.981Z,101699.00
2018-06-20T01:44:00.430Z,101707.00
2018-06-20T01:47:11.284Z,101709.00
2018-06-20T01:50:27.856Z,101704.00
2018-06-20T01:53:39.257Z,101704.00
2018-06-20T01:56:50.519Z,101704.00
2018-06-20T02:00:01.385Z,101703.00
2018-06-20T02:03:12.327Z,101701.00
2018-06-20T02:06:23.051Z,101701.00
2018-06-20T02:09:33.519Z,101698.00
2018-06-20T02:12:44.427Z,101703.00
2018-06-20T02:15:55.403Z,101699.00
2018-06-20T02:19:06.256Z,101698.00
2018-06-20T02:22:16.778Z,101693.00
2018-06-20T02:25:27.231Z,101686.00
2018-06-20T02:28:38.053Z,101688.00
2018-06-20T02:31:48.521Z,101683.00
2018-06-20T02:34:59.255Z,101682.00
2018-06-20T02:38:09.589Z,101679.00
2018-06-20T02:41:20.337Z,101678.00
2018-06-20T02:44:31.145Z,101671.00
2018-06-20T02:47:43.065Z,101671.00
2018-06-20T02:50:53.739Z,101670.00
2018-06-20T02:54:04.229Z,101667.00
2018-06-20T02:57:14.859Z,101671.00
2018-06-20T03:00:25.668Z,101673.00
2018-06-20T03:03:36.371Z,101664.00
2018-06-20T03:06:46.816Z,101670.00
2018-06-20T03:09:57.327Z,101668.00
2018-06-20T03:13:08.150Z,101670.00
2018-06-20T03:16:18.440Z,101666.00
2018-06-20T03:19:30.181Z,101666.00
2018-06-20T03:22:41.016Z,101667.00
2018-06-20T03:25:51.719Z,101666.00
2018-06-20T03:29:02.982Z,101661.00
2018-06-20T03:32:13.812Z,101656.00
2018-06-20T03:35:24.859Z,101654.00
2018-06-20T03:38:35.919Z,101650.00
2018-06-20T03:41:46.747Z,101652.00
2018-06-20T03:44:57.203Z,101651.00
2018-06-20T03:48:07.760Z,101653.00
2018-06-20T03:51:21.637Z,101655.00
2018-06-20T03:54:33.570Z,101654.00
2018-06-20T03:57:44.263Z,101648.00
2018-06-20T04:00:56.720Z,101650.00
2018-06-20T04:04:07.081Z,101650.00
2018-06-20T04:07:17.354Z,101648.00
2018-06-20T04:10:27.853Z,101648.00
2018-06-20T04:13:38.292Z,101649.00
2018-06-20T04:16:49.123Z,101644.00
2018-06-20T04:19:59.973Z,101643.00
2018-06-20T04:23:10.668Z,101645.00
2018-06-20T04:26:21.570Z,101650.00
2018-06-20T04:29:32.085Z,101645.00
2018-06-20T04:32:42.500Z,101637.00
2018-06-20T04:35:52.770Z,101633.00
2018-06-20T04:39:04.533Z,101636.00
2018-06-20T04:42:15.076Z,101632.00
2018-06-20T04:45:26.537Z,101631.00
2018-06-20T04:48:37.104Z,101634.00
2018-06-20T04:51:47.680Z,101625.00
2018-06-20T04:54:59.924Z,101626.00
2018-06-20T04:58:11.024Z,101619.00
2018-06-20T05:01:21.787Z,101616.00
2018-06-20T05:04:32.451Z,101616.00
2018-06-20T05:07:43.527Z,101617.00
2018-06-20T05:10:59.368Z,101616.00
2018-06-20T05:14:10.515Z,101612.00
2018-06-20T05:17:23.293Z,101614.00
2018-06-20T05:20:36.444Z,101612.00
2018-06-20T05:23:47.470Z,101613.00
2018-06-20T05:26:58.153Z,101605.00
2018-06-20T05:30:09.150Z,101602.00
2018-06-20T05:33:21.700Z,101604.00
2018-06-20T05:36:32.775Z,101600.00
2018-06-20T05:39:46.484Z,101604.00
2018-06-20T05:42:57.058Z,101604.00
2018-06-20T05:46:07.503Z,101593.00
2018-06-20T05:49:19.596Z,101597.00
2018-06-20T05:52:32.020Z,101598.00
2018-06-20T05:55:43.124Z,101597.00
2018-06-20T05:58:53.599Z,101604.00
2018-06-20T06:02:04.079Z,101603.00
2018-06-20T06:05:14.460Z,101602.00
2018-06-20T06:08:25.008Z,101601.00
2018-06-20T06:11:36.441Z,101604.00
2018-06-20T06:14:47.165Z,101604.00
2018-06-20T06:17:57.745Z,101607.00
2018-06-20T06:21:08.632Z,101611.00
2018-06-20T06:24:19.141Z,101612.00
2018-06-20T06:27:30.437Z,101609.00
2018-06-20T06:30:42.179Z,101607.00
2018-06-20T06:33:53.568Z,101613.00
2018-06-20T06:37:03.947Z,101607.00
2018-06-20T06:40:14.766Z,101609.00
2018-06-20T06:43:25.394Z,101609.00
2018-06-20T06:46:36.756Z,101612.00
2018-06-20T06:49:47.145Z,101611.00
2018-06-20T06:52:57.417Z,101607.00
2018-06-20T06:56:08.006Z,101614.00
2018-06-20T06:59:18.580Z,101611.00
2018-06-20T07:02:28.872Z,101612.00
2018-06-20T07:05:39.927Z,101610.00
2018-06-20T07:08:51.014Z,101603.00
2018-06-20T07:12:02.065Z,101596.00
2018-06-20T07:15:12.281Z,101606.00
2018-06-20T07:18:22.855Z,101606.00
2018-06-20T07:21:33.608Z,101606.00
2018-06-20T07:24:44.871Z,101602.00
2018-06-20T07:27:55.279Z,101601.00
2018-06-20T07:31:08.817Z,101600.00
2018-06-20T07:34:19.470Z,101597.00
2018-06-20T07:37:30.236Z,101596.00
2018-06-20T07:40:40.515Z,101589.00
2018-06-20T07:43:51.476Z,101585.00
2018-06-20T07:47:02.077Z,101587.00
2018-06-20T07:50:12.459Z,101593.00
2018-06-20T07:53:22.959Z,101586.00
2018-06-20T07:56:34.239Z,101587.00
2018-06-20T07:59:50.128Z,101587.00
2018-06-20T08:03:16.778Z,101582.00
2018-06-20T08:06:32.562Z,101581.00
2018-06-20T08:09:48.493Z,101581.00
2018-06-20T08:13:04.347Z,101581.00
2018-06-20T08:16:19.838Z,101588.00
2018-06-20T08:19:35.563Z,101588.00
2018-06-20T08:22:46.633Z,101585.00
2018-06-20T08:25:57.734Z,101588.00
2018-06-20T08:29:08.574Z,101583.00
2018-06-20T08:32:19.263Z,101580.00
2018-06-20T08:35:33.113Z,101579.00
2018-06-20T08:38:43.815Z,101572.00
2018-06-20T08:41:54.351Z,101574.00
2018-06-20T08:45:04.669Z,101567.00
2018-06-20T08:48:15.495Z,101577.00
2018-06-20T08:51:25.963Z,101579.00
2018-06-20T08:54:36.707Z,101575.00
2018-06-20T08:57:47.188Z,101573.00
2018-06-20T09:01:03.298Z,101562.00
2018-06-20T09:04:19.868Z,101557.00
2018-06-20T09:07:35.451Z,101569.00
2018-06-20T09:10:51.639Z,101567.00
2018-06-20T09:14:07.267Z,101571.00
2018-06-20T09:17:22.968Z,101572.00
2018-06-20T09:20:33.712Z,101575.00
2018-06-20T09:23:48.921Z,101569.00
2018-06-20T09:26:59.654Z,101562.00
2018-06-20T09:30:10.345Z,101557.00
2018-06-20T09:33:20.705Z,101553.00
2018-06-20T09:36:31.704Z,101545.00
2018-06-20T09:39:42.528Z,101547.00
2018-06-20T09:42:52.723Z,101544.00
2018-06-20T09:46:03.627Z,101541.00
2018-06-20T09:49:14.038Z,101544.00
2018-06-20T09:52:24.619Z,101542.00
2018-06-20T09:55:35.360Z,101538.00
2018-06-20T09:58:46.807Z,101528.00
2018-06-20T10:02:02.459Z,101522.00
2018-06-20T10:05:18.339Z,101528.00
2018-06-20T10:08:34.183Z,101529.00
2018-06-20T10:11:50.356Z,101519.00
2018-06-20T10:15:00.944Z,101513.00
2018-06-20T10:18:12.013Z,101519.00
2018-06-20T10:21:22.669Z,101523.00
2018-06-20T10:24:33.364Z,101509.00
2018-06-20T10:27:44.002Z,101513.00
2018-06-20T10:30:54.748Z,101497.00
2018-06-20T10:34:05.626Z,101501.00
2018-06-20T10:37:16.567Z,101494.00
2018-06-20T10:40:27.239Z,101496.00
2018-06-20T10:43:38.041Z,101485.00
2018-06-20T10:46:53.857Z,101485.00
2018-06-20T10:50:04.848Z,101484.00
2018-06-20T10:53:16.052Z,101484.00
2018-06-20T10:56:31.812Z,101487.00
2018-06-20T10:59:47.341Z,101480.00
2018-06-20T11:03:02.960Z,101470.00
2018-06-20T11:06:18.708Z,101455.00
2018-06-20T11:09:34.453Z,101460.00
2018-06-20T11:13:20.475Z,101470.00
2018-06-20T11:16:31.383Z,101456.00
2018-06-20T11:19:42.167Z,101453.00
2018-06-20T11:22:52.883Z,101461.00
2018-06-20T11:26:04.297Z,101451.00
2018-06-20T11:29:15.660Z,101448.00
2018-06-20T11:32:27.268Z,101444.00
2018-06-20T11:35:42.696Z,101423.00
2018-06-20T11:38:53.417Z,101415.00
2018-06-20T11:42:04.046Z,101410.00
2018-06-20T11:45:15.065Z,101411.00
2018-06-20T11:48:25.547Z,101404.00
2018-06-20T11:51:36.940Z,101393.00
2018-06-20T11:54:48.500Z,101386.00
2018-06-20T11:58:04.470Z,101384.00
2018-06-20T12:01:20.940Z,101394.00
2018-06-20T12:04:36.674Z,101382.00
2018-06-20T12:07:52.490Z,101383.00
2018-06-20T12:11:08.149Z,101380.00
2018-06-20T12:14:23.687Z,101386.00
2018-06-20T12:17:39.699Z,101377.00
2018-06-20T12:20:55.744Z,101359.00
2018-06-20T12:24:11.646Z,101372.00
2018-06-20T12:27:27.214Z,101356.00
2018-06-20T12:30:43.312Z,101354.00
2018-06-20T12:33:59.091Z,101365.00
2018-06-20T12:37:14.879Z,101342.00
2018-06-20T12:40:29.688Z,101347.00
2018-06-20T12:43:45.635Z,101335.00
2018-06-20T12:47:00.357Z,101344.00
2018-06-20T12:50:15.138Z,101341.00
2018-06-20T12:53:25.865Z,101331.00
2018-06-20T12:56:36.580Z,101323.00
2018-06-20T12:59:46.858Z,101330.00
2018-06-20T13:02:57.319Z,101319.00
2018-06-20T13:06:07.915Z,101317.00
2018-06-20T13:09:18.664Z,101315.00
2018-06-20T13:12:29.381Z,101326.00
2018-06-20T13:15:40.009Z,101313.00
2018-06-20T13:19:01.280Z,101312.00
2018-06-20T13:22:11.957Z,101307.00
2018-06-20T13:25:22.656Z,101311.00
2018-06-20T13:28:33.301Z,101304.00
2018-06-20T13:31:49.171Z,101301.00
2018-06-20T13:35:05.309Z,101293.00
2018-06-20T13:38:20.876Z,101288.00
2018-06-20T13:41:36.650Z,101304.00
2018-06-20T13:44:47.464Z,101296.00
2018-06-20T13:48:03.384Z,101283.00
2018-06-20T13:51:14.381Z,101273.00
2018-06-20T13:54:25.413Z,101275.00
2018-06-20T13:57:35.986Z,101268.00
2018-06-20T14:00:46.696Z,101267.00
2018-06-20T14:03:57.425Z,101273.00
2018-06-20T14:07:08.128Z,101271.00
2018-06-20T14:10:18.743Z,101272.00
2018-06-20T14:13:29.317Z,101275.00
2018-06-20T14:16:40.053Z,101281.00
2018-06-20T14:19:56.114Z,101274.00
2018-06-20T14:23:07.260Z,101268.00
2018-06-20T14:26:18.032Z,101274.00
2018-06-20T14:29:33.567Z,101257.00
2018-06-20T14:32:49.590Z,101270.00
2018-06-20T14:36:05.533Z,101263.00
2018-06-20T14:39:21.137Z,101263.00
2018-06-20T14:42:36.930Z,101268.00
2018-06-20T14:45:52.672Z,101265.00
2018-06-20T14:49:03.991Z,101261.00
2018-06-20T14:52:14.661Z,101247.00
2018-06-20T14:55:25.455Z,101254.00
2018-06-20T14:58:36.244Z,101239.00
2018-06-20T15:01:48.133Z,101236.00
2018-06-20T15:04:58.381Z,101242.00
2018-06-20T15:08:09.102Z,101242.00
2018-06-20T15:11:19.509Z,101237.00
2018-06-20T15:14:30.420Z,101250.00
2018-06-20T15:17:40.749Z,101234.00
2018-06-20T15:20:50.930Z,101238.00
2018-06-20T15:24:01.681Z,101230.00
2018-06-20T15:27:17.573Z,101227.00
2018-06-20T15:30:33.276Z,101216.00
2018-06-20T15:33:48.994Z,101202.00
2018-06-20T15:37:04.495Z,101210.00
2018-06-20T15:40:15.301Z,101218.00
2018-06-20T15:43:25.908Z,101196.00
2018-06-20T15:46:36.596Z,101205.00
2018-06-20T15:49:47.305Z,101217.00
2018-06-20T15:52:57.972Z,101209.00
2018-06-20T15:56:08.688Z,101204.00
2018-06-20T15:59:19.456Z,101197.00
2018-06-20T16:02:29.984Z,101191.00
2018-06-20T16:05:40.780Z,101194.00
2018-06-20T16:08:56.651Z,101187.00
2018-06-20T16:12:07.353Z,101192.00
2018-06-20T16:15:18.575Z,101187.00
2018-06-20T16:18:29.307Z,101185.00
2018-06-20T16:21:45.368Z,101177.00
2018-06-20T16:25:01.120Z,101186.00
2018-06-20T16:28:16.791Z,101176.00
2018-06-20T16:31:27.481Z,101173.00
2018-06-20T16:34:38.213Z,101168.00
2018-06-20T16:37:48.932Z,101166.00
2018-06-20T16:40:59.464Z,101173.00
2018-06-20T16:44:10.237Z,101178.00
2018-06-20T16:47:20.948Z,101167.00
2018-06-20T16:50:31.896Z,101157.00
2018-06-20T16:53:42.585Z,101160.00
2018-06-20T16:56:53.321Z,101153.00
2018-06-20T17:00:04.542Z,101150.00
2018-06-20T17:03:15.257Z,101153.00
2018-06-20T17:06:25.866Z,101154.00
2018-06-20T17:09:36.383Z,101155.00
2018-06-20T17:12:52.256Z,101157.00
2018-06-20T17:16:07.845Z,101154.00
2018-06-20T17:19:23.737Z,101150.00
2018-06-20T17:22:40.205Z,101164.00
2018-06-20T17:25:50.950Z,101152.00
2018-06-20T17:29:01.444Z,101149.00
2018-06-20T17:32:11.999Z,101135.00
2018-06-20T17:35:22.738Z,101137.00
2018-06-20T17:38:33.633Z,101145.00
2018-06-20T17:41:44.480Z,101138.00
2018-06-20T17:44:55.132Z,101139.00
2018-06-20T17:48:06.142Z,101134.00
2018-06-20T17:51:17.279Z,101135.00
2018-06-20T17:54:28.016Z,101125.00
2018-06-20T17:57:52.280Z,101119.00
2018-06-20T18:01:09.415Z,101125.00
2018-06-20T18:04:25.556Z,101125.00
2018-06-20T18:07:41.169Z,101119.00
2018-06-20T18:10:59.228Z,101118.00
2018-06-20T18:14:16.041Z,101101.00
2018-06-20T18:17:27.051Z,101109.00
2018-06-20T18:20:38.990Z,101109.00
2018-06-20T18:23:50.300Z,101105.00
2018-06-20T18:27:00.851Z,101100.00
2018-06-20T18:30:11.377Z,101102.00
2018-06-20T18:33:22.358Z,101100.00
2018-06-20T18:36:35.407Z,101092.00
2018-06-20T18:39:51.763Z,101097.00
2018-06-20T18:43:03.210Z,101102.00
2018-06-20T18:46:15.015Z,101098.00
2018-06-20T18:49:26.440Z,101093.00
2018-06-20T18:52:37.151Z,101105.00
2018-06-20T18:55:48.470Z,101110.00
2018-06-20T18:59:05.044Z,101114.00
2018-06-20T19:02:20.698Z,101116.00
2018-06-20T19:05:36.903Z,101116.00
2018-06-20T19:08:50.262Z,101111.00
2018-06-20T19:12:01.388Z,101109.00
2018-06-20T19:15:12.151Z,101113.00
2018-06-20T19:18:22.572Z,101116.00
2018-06-20T19:21:33.173Z,101118.00
2018-06-20T19:24:45.340Z,101114.00
2018-06-20T19:27:55.842Z,101118.00
2018-06-20T19:31:06.294Z,101113.00
2018-06-20T19:34:16.882Z,101117.00
2018-06-20T19:37:27.691Z,101118.00
2018-06-20T19:40:38.513Z,101120.00
2018-06-20T19:43:54.993Z,101125.00
2018-06-20T19:47:06.348Z,101122.00
2018-06-20T19:50:17.166Z,101122.00
2018-06-20T19:53:29.206Z,101123.00
2018-06-20T19:56:39.530Z,101124.00
2018-06-20T19:59:49.960Z,101124.00
2018-06-20T20:03:00.393Z,101119.00
2018-06-20T20:06:10.839Z,101128.00
2018-06-20T20:09:21.691Z,101125.00
2018-06-20T20:12:32.977Z,101127.00
2018-06-20T20:15:43.610Z,101123.00
2018-06-20T20:18:55.125Z,101120.00
2018-06-20T20:22:06.362Z,101121.00
2018-06-20T20:25:16.749Z,101125.00
2018-06-20T20:28:27.388Z,101123.00
2018-06-20T20:31:39.248Z,101114.00
2018-06-20T20:34:50.169Z,101114.00
2018-06-20T20:38:00.699Z,101117.00
2018-06-20T20:41:11.244Z,101119.00
2018-06-20T20:44:21.775Z,101111.00
2018-06-20T20:47:32.088Z,101114.00
2018-06-20T20:50:42.873Z,101109.00
2018-06-20T20:53:53.348Z,101114.00
2018-06-20T20:57:04.243Z,101112.00
2018-06-20T21:00:15.186Z,101108.00
2018-06-20T21:03:32.481Z,101105.00
2018-06-20T21:06:43.577Z,101105.00
2018-06-20T21:09:55.394Z,101099.00
2018-06-20T21:13:06.152Z,101095.00
2018-06-20T21:16:18.845Z,101099.00
2018-06-20T21:19:36.091Z,101096.00
2018-06-20T21:22:47.352Z,101089.00
2018-06-20T21:25:58.144Z,101091.00
2018-06-20T21:29:08.796Z,101089.00
2018-06-20T21:32:19.665Z,101084.00
2018-06-20T21:35:30.227Z,101088.00
2018-06-20T21:38:40.694Z,101085.00
2018-06-20T21:41:51.475Z,101080.00
2018-06-20T21:45:01.871Z,101079.00
2018-06-20T21:48:13.700Z,101079.00
2018-06-20T21:51:24.684Z,101078.00
2018-06-20T21:54:35.424Z,101074.00
2018-06-20T21:57:46.897Z,101073.00
2018-06-20T22:00:57.632Z,101070.00
2018-06-20T22:04:13.200Z,101064.00
2018-06-20T22:07:25.406Z,101061.00
2018-06-20T22:10:36.747Z,101064.00
2018-06-20T22:13:47.593Z,101071.00
2018-06-20T22:16:58.068Z,101065.00
2018-06-20T22:20:09.968Z,101063.00
2018-06-20T22:23:20.635Z,101060.00
2018-06-20T22:26:32.112Z,101054.00
2018-06-20T22:29:42.976Z,101049.00
2018-06-20T22:32:54.251Z,101058.00
2018-06-20T22:36:04.798Z,101062.00
2018-06-20T22:39:15.443Z,101056.00
2018-06-20T22:42:26.982Z,101051.00
2018-06-20T22:45:37.768Z,101051.00
2018-06-20T22:48:48.762Z,101041.00
2018-06-20T22:51:59.344Z,101047.00
2018-06-20T22:55:09.824Z,101042.00
2018-06-20T22:58:21.146Z,101043.00
2018-06-20T23:01:32.111Z,101046.00
2018-06-20T23:04:43.164Z,101046.00
2018-06-20T23:07:56.747Z,101053.00
2018-06-20T23:11:07.997Z,101049.00
2018-06-20T23:14:18.793Z,101042.00
2018-06-20T23:17:29.212Z,101046.00
2018-06-20T23:20:40.265Z,101043.00
2018-06-20T23:23:50.780Z,101038.00
2018-06-20T23:27:01.255Z,101030.00
2018-06-20T23:30:11.749Z,101017.00
2018-06-20T23:33:22.551Z,101021.00
2018-06-20T23:36:33.433Z,101010.00
2018-06-20T23:39:43.804Z,101010.00
2018-06-20T23:42:55.500Z,101012.00
2018-06-20T23:46:06.419Z,101008.00
2018-06-20T23:49:16.856Z,101011.00
2018-06-20T23:52:27.327Z,101010.00
2018-06-20T23:55:38.085Z,101005.00
2018-06-20T23:58:48.803Z,101014.00
